Time,TemperatureF,DewpointF,PressureIn,WindDirection,WindDirectionDegrees,WindSpeedMPH,WindSpeedGustMPH,Humidity,HourlyPrecipIn,Conditions,Clouds,dailyrainin,SoftwareType,DateUTC
2013-05-14 01:02:00,49.0,40.0,-100.00,South,180,5.0,8.0,70,-99.99,,,-99.99,,2013-05-14 08:02:00,
2013-05-14 01:11:00,49.0,40.0,-100.00,South,180,5.0,8.0,70,-99.99,,,-99.99,,2013-05-14 08:11:00,
2013-05-14 03:04:00,45.0,36.0,-100.00,NNE,20,1.0,6.0,70,-99.99,,,-99.99,,2013-05-14 10:04:00,
2013-05-14 03:14:00,45.0,36.0,-100.00,NNE,20,1.0,6.0,70,-99.99,,,-99.99,,2013-05-14 10:14:00,
2013-05-14 05:02:00,45.0,36.0,-100.00,SE,125,5.0,12.0,70,-99.99,,,-99.99,,2013-05-14 12:02:00,
2013-05-14 05:12:00,45.0,36.0,-100.00,SE,125,5.0,12.0,70,-99.99,,,-99.99,,2013-05-14 12:12:00,
2013-05-14 06:01:00,43.0,35.0,-100.00,West,280,1.0,7.0,73,-99.99,,,-99.99,,2013-05-14 13:01:00,
2013-05-14 06:11:00,43.0,35.0,-100.00,West,280,1.0,7.0,73,-99.99,,,-99.99,,2013-05-14 13:11:00,
2013-05-14 07:01:00,42.0,37.0,-100.00,East,100,1.0,3.0,82,-99.99,,,-99.99,,2013-05-14 14:01:00,
2013-05-14 07:11:00,42.0,37.0,-100.00,East,100,1.0,3.0,82,-99.99,,,-99.99,,2013-05-14 14:11:00,
2013-05-14 08:01:00,46.0,38.0,-100.00,NE,55,1.0,2.0,73,-99.99,,,-99.99,,2013-05-14 15:01:00,
2013-05-14 08:12:00,46.0,38.0,-100.00,NE,55,1.0,2.0,73,-99.99,,,-99.99,,2013-05-14 15:12:00,
2013-05-14 09:02:00,49.0,40.0,-100.00,North,360,2.0,5.0,70,-99.99,,,-99.99,,2013-05-14 16:02:00,
2013-05-14 09:12:00,49.0,40.0,-100.00,North,360,2.0,5.0,70,-99.99,,,-99.99,,2013-05-14 16:12:00,
2013-05-14 11:02:00,57.0,41.0,-100.00,ESE,120,1.0,10.0,54,-99.99,,,-99.99,,2013-05-14 18:02:00,
2013-05-14 11:12:00,57.0,41.0,-100.00,ESE,120,1.0,10.0,54,-99.99,,,-99.99,,2013-05-14 18:12:00,
2013-05-14 12:01:00,60.0,39.0,-100.00,NE,45,2.0,7.0,45,-99.99,,,-99.99,,2013-05-14 19:01:00,
2013-05-14 12:11:00,60.0,39.0,-100.00,NE,45,2.0,7.0,45,-99.99,,,-99.99,,2013-05-14 19:11:00,
2013-05-14 13:02:00,62.0,43.0,-100.00,SSE,160,5.0,9.0,49,-99.99,,,-99.99,,2013-05-14 20:02:00,
2013-05-14 13:11:00,62.0,43.0,-100.00,SSE,160,5.0,9.0,49,-99.99,,,-99.99,,2013-05-14 20:11:00,
2013-05-14 14:03:00,61.0,43.0,-100.00,SSE,160,6.0,10.0,51,-99.99,,,-99.99,,2013-05-14 21:03:00,
2013-05-14 14:12:00,61.0,43.0,-100.00,SSE,160,6.0,10.0,51,-99.99,,,-99.99,,2013-05-14 21:12:00,
2013-05-14 15:03:00,64.0,43.0,-100.00,South,175,3.0,9.0,46,-99.99,,,-99.99,,2013-05-14 22:03:00,
2013-05-14 15:13:00,64.0,43.0,-100.00,South,175,3.0,9.0,46,-99.99,,,-99.99,,2013-05-14 22:13:00,
2013-05-14 18:01:00,64.0,42.0,-100.00,NNW,330,2.0,7.0,44,-99.99,,,-99.99,,2013-05-15 01:01:00,
2013-05-14 18:11:00,64.0,42.0,-100.00,NNW,330,2.0,7.0,44,-99.99,,,-99.99,,2013-05-15 01:11:00,
2013-05-14 21:03:00,55.0,45.0,-100.00,SE,145,2.0,6.0,68,-99.99,,,-99.99,,2013-05-15 04:03:00,
2013-05-14 21:12:00,55.0,45.0,-100.00,SE,145,2.0,6.0,68,-99.99,,,-99.99,,2013-05-15 04:12:00,
2013-05-14 23:02:00,48.0,41.0,-100.00,ESE,110,2.0,6.0,76,-99.99,,,-99.99,,2013-05-15 06:02:00,
2013-05-14 23:11:00,48.0,41.0,-100.00,ESE,110,2.0,6.0,76,-99.99,,,-99.99,,2013-05-15 06:11:00,